Aviation Digital Data Service (ADDS)

Output produced by METARs form (0837 UTC 28 August 2016)
found at http://www.aviationweather.gov/adds/metars/
 
KAOO 280753Z AUTO 00000KT 10SM CLR 19/18 A3024 RMK AO2 SLP228 T01890178
KAOO 280653Z AUTO 21003KT 10SM CLR 20/18 A3023 RMK AO2 SLP225 T02000183
KAOO 280553Z AUTO 20006KT 10SM CLR 23/18 A3023 RMK AO2 SLP224 T02280183 10233 20194 57004
KAOO 280453Z AUTO 00000KT 10SM CLR 22/18 A3024 RMK AO2 SLP228 T02170183 403060150
KAOO 280353Z AUTO 16004KT 10SM CLR 21/18 A3023 RMK AO2 SLP227 T02110183
KAOO 280253Z AUTO 30004KT 10SM CLR 22/18 A3024 RMK AO2 SLP231 T02220183 50013
KAOO 280153Z AUTO 22005KT 10SM CLR 23/18 A3025 RMK AO2 SLP232 T02280183
KAOO 280053Z AUTO 00000KT 10SM CLR 22/18 A3024 RMK AO2 SLP230 T02170183
KAOO 272353Z AUTO 14003KT 10SM CLR 24/19 A3020 RMK AO2 SLP219 T02390189 10306 20239 50005
KAOO 272253Z AUTO 19005KT 10SM CLR 28/18 A3021 RMK AO2 SLP220 T02780178
KAOO 272153Z AUTO 16006KT 10SM CLR 29/18 A3019 RMK AO2 SLP213 T02940183
KAOO 272053Z AUTO 15007KT 10SM SCT055 29/18 A3019 RMK AO2 SLP213 T02940183 56010
KAOO 271953Z AUTO 14007KT 10SM FEW055 29/18 A3019 RMK AO2 SLP215 T02940183
KAOO 271853Z AUTO 00000KT 10SM SCT049 30/18 A3021 RMK AO2 SLP218 T03000183
KAOO 271753Z AUTO 14006KT 10SM CLR 29/19 A3022 RMK AO2 SLP223 T02890194 10289 20178 58010
KAOO 271653Z AUTO 10006KT 10SM CLR 28/19 A3023 RMK AO2 SLP228 T02780189
KAOO 271553Z AUTO 08003KT 10SM CLR 27/19 A3025 RMK AO2 SLP233 T02670189
KAOO 271453Z AUTO VRB05KT 10SM CLR 26/18 A3025 RMK AO2 SLP235 T02560183 50000
KAOO 271353Z AUTO 00000KT 10SM CLR 23/19 A3025 RMK AO2 SLP236 T02330189
KAOO 271253Z AUTO 00000KT 10SM CLR 21/18 A3026 RMK AO2 SLP239 T02060183
KAOO 271153Z AUTO 00000KT 6SM BR CLR 18/17 A3025 RMK AO2 SLP235 T01780172 10178 20150 51012
KAOO 271053Z AUTO 00000KT 5SM BR CLR 15/15 A3024 RMK AO2 SLP231 T01500150
KAOO 270953Z AUTO 00000KT 7SM CLR 15/15 A3023 RMK AO2 SLP228 T01500150
KAOO 270853Z AUTO 00000KT 8SM CLR 16/16 A3021 RMK AO2 SLP222 T01560156 53007
KAOO 270753Z AUTO 00000KT 10SM CLR 16/16 A3019 RMK AO2 SLP214 T01610161
KAOO 270653Z AUTO 00000KT 10SM CLR 17/17 A3020 RMK AO2 SLP216 T01670167
KAOO 270553Z AUTO 16003KT 10SM CLR 17/17 A3019 RMK AO2 SLP215 T01720167 10239 20172 50001
KAOO 270453Z AUTO 00000KT 10SM CLR 17/17 A3020 RMK AO2 SLP217 T01720167 403000172
KAOO 270353Z AUTO 00000KT 10SM CLR 18/17 A3020 RMK AO2 SLP215 T01830172
KAOO 270253Z AUTO 00000KT 10SM CLR 18/18 A3019 RMK AO2 SLP214 T01830178 51017
KAOO 270153Z AUTO 00000KT 10SM CLR 20/18 A3018 RMK AO2 SLP208 T02000178
KAOO 270053Z AUTO 00000KT 10SM CLR 20/18 A3016 RMK AO2 SLP203 T02000183
KAOO 262353Z AUTO 35003KT 10SM CLR 24/17 A3014 RMK AO2 SLP195 T02390172 10300 20239 53003
KAOO 262253Z AUTO 35005KT 10SM CLR 28/17 A3013 RMK AO2 SLP192 T02780167
KAOO 262153Z AUTO 32006KT 10SM CLR 29/16 A3013 RMK AO2 SLP192 T02890161
KAOO 262053Z AUTO 31008KT 10SM CLR 29/17 A3013 RMK AO2 SLP191 T02940167 55006